Portada
METAR-TAF:

METAR-TAF

Aeropuertos :

Aeropuerto Port Bouet

Abiyán, Costa de Marfil

latitud: 05-15N, longitud: 003-56W, altitud: 7 m

Observación

El informe se hizo hace 32 minutos, a las 18:00 UTC
Viento 10 kt del suroeste
Temperatura 30°C
Humedad 79%
Presión 1009 hPa
Visibilidad: 8000 m
Nubes dispersas a una altura de 1200 ft

METAR: DIAP 161800Z 22010KT 8000 SCT012 30/26 Q1009 NOSIG

Hora: 18:32 (18:32 UTC)

Pronóstico

El informe se hizo hace 1 hora y 32 minutos, a las 17:00 UTC
Pronóstico válido del 16 a las 18 UTC al 17 a las 24 UTC
Viento 10 kt del sur-suroeste
Visibilidad: 8000 m
Nubes dispersas a una altura de 1200 ft
Temporalmente
del 16 a las 20 UTC al 16 a las 24 UTC
Cielo nuboso a una altura de 1200 ft
Probabilidad 30% :
Temporalmente
del 17 a las 16 UTC al 17 a las 22 UTC
Visibilidad: 4000 m
Cielo nuboso a una altura de 1200 ft
lluvia

TAF: DIAP 161700Z 1618/1724 21010KT 8000 SCT012 TEMPO 1620/1624 BKN012 PROB30 TEMPO 1716/1722 4000 RA BKN012

Observaciones y pronósticos meteorológicos de más de 4000 aeropuertos (mensajes METAR y TAF).

Los puntos amarillos y rojos representan las estaciones disponibles.

Ponga el ratón en el punto deseado para ver el nombre de la estación.

Haga clic para ver las observaciones y los pronósticos meteorológicos.

Para cambiar el mapa : haga clic en los botones verdes con una cruz de color negro para hacer un zoom, en el botón verde con un guión para alejar o en las flechas verdes para mapas adyacentes.


METAR-TAF: